الصفحة الرئيسية
METAR-TAF:

METAR-TAF

مطار :

Bluefields, نيكاراغوا

دائرة عرض: 12-00N, خط طول: 083-46W, ارتفاع: 5 متر

مراقبة الطقس الحالي

تاريخ ووقت الإصدار 1ساعة و 5 دقيقة قبل الساعة 20:00UTC
ريح 8 عقدة من الشرق
درجة الحرارة 30°درجة مئوية
الرطوبة 75%
ضغط 1012 hPa
الرؤية 10 كم أو أكثر
غيوم متفرقة على ارتفاع 1800 قدم

METAR: MNBL 232000Z 09008KT 9999 SCT018 30/25 Q1012

زمن: 15:05 (21:05 UTC)

توقعات

تاريخ ووقت الإصدار 23ساعات و 20 دقيقة قبل الساعة 21:45UTC
التوقعات صالحة من23 الساعة 00 UTC إلى 23 الساعة 24 UTC
ريح 8 عقدة من الشرق
الرؤية 10 كم أو أكثر
غيوم متفرقة على ارتفاع 1800 قدم
من 23 الساعة 0600 UTC
ريح 4 عقدة من الشرق/الشمال الشرقي
الرؤية: 6000 متر
غيوم مفككة على ارتفاع 1600 قدم, مزن ركامية عمودية.
بالجوار, مطر
أصبح
من 23 الساعة 14 UTC إلى 23 الساعة 17 UTC
ريح 10 عقدة من الشرق
من 23 الساعة 2000 UTC
الرؤية 10 كم أو أكثر
غيوم متفرقة على ارتفاع 1700 قدم

TAF: MNBL 222145Z 2300/2324 09008KT 9999 SCT018 FM230600 06004KT 6000 VCRA BKN016TCU BECMG 2314/2317 08010KT FM232000 9999 SCT017

أرصاد الطقس والتوقعات من أكثر من 4000 مطار (تقارير الطقس للمطار METAR والتنبؤ بالطقس بالمطارTAF).

المحطات المتاحة هي النقط الصفراء والحمراء على الخريطة.

حرك المؤشر فوق النقطة لمعرفة اسم المحطة.

ثم انقر لمعرفة أرصاد وتوقعات الطقس.

لتغيير الخارطة: اضغط على الأزرار الخضراء مع رمز الصليب الأسود للتكبير. على الزر الأخضر مع شرطة للتصغير، أو على الأسهم الخضراء للخرائط المجاورة.


METAR-TAF: